Time;durP1;ratioP1;P1;durP2;ratioP2;P2;SDS_P1;SDS_P2;PMS_P1;PMS_P2;Temp;Humidity;BMP_temperature;BMP_pressure;BME280_temperature;BME280_humidity;BME280_pressure;Samples;Min_cycle;Max_cycle;Signal;HPM_P1;HPM_P2
2023/07/12 00:02:09;;;;;;;4.50;3.70;;;25.00;62.60;;;;;;5015056;28;20460;-48
2023/07/12 00:04:35;;;;;;;6.50;4.80;;;25.00;62.70;;;;;;5013386;28;20443;-47
2023/07/12 00:07:04;;;;;;;7.30;5.27;;;;;;;;;;5013097;28;20947;-47
2023/07/12 00:09:31;;;;;;;5.20;4.70;;;25.00;62.80;;;;;;5012730;28;20745;-47
2023/07/12 00:11:58;;;;;;;9.20;4.63;;;;;;;;;;5012898;28;20798;-48
2023/07/12 00:14:25;;;;;;;5.40;4.37;;;24.90;63.10;;;;;;5012935;28;20429;-47
2023/07/12 00:16:51;;;;;;;6.53;4.67;;;24.90;63.20;;;;;;5012837;28;20474;-47
2023/07/12 00:19:18;;;;;;;5.53;4.93;;;;;;;;;;5012472;28;20436;-47
2023/07/12 00:21:45;;;;;;;4.73;4.03;;;24.90;63.60;;;;;;5012820;28;20451;-47
2023/07/12 00:24:13;;;;;;;5.90;4.97;;;24.80;63.60;;;;;;5012454;28;20451;-46
2023/07/12 00:26:40;;;;;;;9.20;4.77;;;;;;;;;;5012466;28;20450;-46
2023/07/12 00:29:08;;;;;;;5.53;4.90;;;24.80;63.90;;;;;;5012424;28;20435;-47
2023/07/12 00:31:40;;;;;;;7.70;4.63;;;24.80;64.10;;;;;;5012722;28;20516;-47
2023/07/12 00:34:07;;;;;;;4.70;3.97;;;;;;;;;;5012230;28;20436;-47
2023/07/12 00:36:34;;;;;;;6.20;4.37;;;24.70;64.30;;;;;;5012240;28;20533;-47
2023/07/12 00:39:03;;;;;;;7.80;4.33;;;24.70;64.30;;;;;;5011812;28;20439;-47
2023/07/12 00:41:42;;;;;;;5.23;4.73;;;;;;;;;;5010604;28;21036;-47
2023/07/12 00:44:12;;;;;;;4.80;4.40;;;24.70;64.60;;;;;;5012132;28;20432;-47
2023/07/12 00:46:41;;;;;;;6.80;4.80;;;24.70;64.80;;;;;;5010854;28;20790;-47
2023/07/12 00:49:10;;;;;;;6.20;4.53;;;24.60;64.80;;;;;;5011831;28;20443;-47
2023/07/12 00:51:39;;;;;;;5.73;4.70;;;;;;;;;;5010814;28;20499;-48
2023/07/12 00:54:10;;;;;;;5.50;5.00;;;;;;;;;;5011969;28;20463;-48
2023/07/12 00:56:40;;;;;;;7.00;5.43;;;;;;;;;;5010893;28;20479;-47
2023/07/12 00:59:10;;;;;;;5.00;4.50;;;24.60;65.30;;;;;;5011827;28;20440;-47
2023/07/12 01:01:37;;;;;;;7.70;5.03;;;;;;;;;;5010497;28;20474;-49
2023/07/12 01:04:05;;;;;;;6.90;4.60;;;24.50;65.20;;;;;;5010643;28;20445;-47
2023/07/12 01:06:32;;;;;;;5.73;5.03;;;;;;;;;;5011943;28;20435;-46
2023/07/12 01:09:03;;;;;;;6.30;5.33;;;;;;;;;;5011579;28;20789;-47
2023/07/12 01:11:30;;;;;;;5.30;4.80;;;24.50;65.40;;;;;;5011813;28;20534;-47
2023/07/12 01:13:58;;;;;;;7.20;4.47;;;24.50;65.60;;;;;;5014018;28;20429;-48
2023/07/12 01:16:26;;;;;;;5.77;4.20;;;;;;;;;;5012479;28;20452;-48
2023/07/12 01:18:53;;;;;;;6.20;4.60;;;;;;;;;;5011561;28;20432;-47
2023/07/12 01:21:22;;;;;;;6.37;4.70;;;;;;;;;;5010511;28;20475;-47
2023/07/12 01:23:49;;;;;;;6.63;4.67;;;24.50;66.00;;;;;;5010563;28;20460;-47
2023/07/12 01:26:19;;;;;;;6.13;4.50;;;;;;;;;;5013076;28;21026;-47
2023/07/12 01:28:47;;;;;;;5.67;4.57;;;24.40;66.10;;;;;;5014963;28;20430;-48
2023/07/12 01:31:15;;;;;;;6.80;5.10;;;;;;;;;;5015189;28;20491;-47
2023/07/12 01:33:41;;;;;;;6.40;4.50;;;;;;;;;;5015608;28;20439;-47
2023/07/12 01:36:10;;;;;;;5.60;4.93;;;24.40;66.30;;;;;;5015775;28;20471;-48
2023/07/12 01:38:38;;;;;;;6.80;4.13;;;;;;;;;;5013476;28;20450;-47
2023/07/12 01:41:05;;;;;;;5.60;4.73;;;;;;;;;;5015357;28;20465;-47
2023/07/12 01:43:32;;;;;;;4.27;3.87;;;;;;;;;;5013807;28;20455;-48
2023/07/12 01:46:00;;;;;;;5.40;4.40;;;24.30;66.80;;;;;;5015191;28;20490;-48
2023/07/12 01:48:27;;;;;;;5.03;4.40;;;;;;;;;;5014844;28;20442;-47
2023/07/12 01:50:53;;;;;;;4.37;3.97;;;24.30;67.00;;;;;;5015557;28;20459;-48
2023/07/12 01:53:22;;;;;;;6.63;4.67;;;;;;;;;;5014131;28;20447;-47
2023/07/12 01:55:51;;;;;;;7.23;5.10;;;;;;;;;;5015480;28;20432;-47
2023/07/12 01:58:17;;;;;;;5.87;4.67;;;24.30;67.20;;;;;;5013647;28;20452;-47
2023/07/12 02:00:45;;;;;;;6.00;4.40;;;;;;;;;;5013840;28;20471;-46
2023/07/12 02:03:12;;;;;;;8.30;4.80;;;24.20;67.40;;;;;;5014302;28;20445;-47
2023/07/12 02:05:38;;;;;;;6.03;5.30;;;24.20;67.40;;;;;;5014979;28;20817;-47
2023/07/12 02:08:06;;;;;;;7.30;4.80;;;;;;;;;;5013601;28;20451;-47
2023/07/12 02:10:32;;;;;;;5.93;4.97;;;24.20;67.80;;;;;;5014961;28;20460;-46
2023/07/12 02:13:00;;;;;;;7.50;4.90;;;24.10;67.70;;;;;;5013181;28;20479;-47
2023/07/12 02:15:27;;;;;;;5.93;4.93;;;;;;;;;;5014308;28;20435;-47
2023/07/12 02:17:54;;;;;;;5.87;4.50;;;24.10;68.10;;;;;;5013040;28;20471;-47
2023/07/12 02:20:21;;;;;;;6.27;4.40;;;;;;;;;;5012585;28;20467;-48
2023/07/12 02:22:50;;;;;;;8.20;4.73;;;24.10;68.20;;;;;;5012963;28;20530;-48
2023/07/12 02:25:18;;;;;;;5.80;4.60;;;24.10;68.40;;;;;;5014387;28;20431;-48
2023/07/12 02:27:45;;;;;;;8.50;5.30;;;;;;;;;;5013072;28;20451;-47
2023/07/12 02:30:16;;;;;;;6.87;4.57;;;;;;;;;;5015894;28;20456;-47
2023/07/12 02:32:42;;;;;;;6.70;5.20;;;24.00;68.60;;;;;;5014818;28;20486;-48
2023/07/12 02:35:12;;;;;;;6.63;5.13;;;;;;;;;;5012805;28;20459;-46
2023/07/12 02:37:39;;;;;;;8.63;4.90;;;24.00;69.00;;;;;;5013895;28;20969;-47
2023/07/12 02:40:07;;;;;;;7.23;5.03;;;24.00;69.10;;;;;;5013425;28;20443;-47
2023/07/12 02:42:34;;;;;;;7.13;5.20;;;;;;;;;;5013762;28;20439;-48
2023/07/12 02:45:01;;;;;;;6.30;5.47;;;24.00;69.30;;;;;;5013924;28;20436;-47
2023/07/12 02:47:29;;;;;;;6.43;5.70;;;24.00;69.30;;;;;;5014012;28;20539;-47
2023/07/12 02:49:56;;;;;;;14.10;5.23;;;;;;;;;;5013141;28;20435;-47
2023/07/12 02:52:23;;;;;;;6.23;4.93;;;24.00;69.40;;;;;;5013314;28;20482;-48
2023/07/12 02:54:49;;;;;;;8.83;5.57;;;24.00;69.50;;;;;;5013494;28;20458;-47
2023/07/12 02:57:17;;;;;;;7.43;5.63;;;;;;;;;;5013441;28;20439;-47
2023/07/12 02:59:44;;;;;;;7.83;5.90;;;24.00;69.50;;;;;;5013190;28;20443;-47
2023/07/12 03:02:12;;;;;;;5.17;4.73;;;;;;;;;;5012019;28;20471;-47
2023/07/12 03:04:41;;;;;;;5.90;5.30;;;;;;;;;;5012027;28;20455;-46
2023/07/12 03:07:07;;;;;;;9.80;6.67;;;24.00;69.90;;;;;;5013308;28;20451;-47
2023/07/12 03:09:34;;;;;;;6.53;5.63;;;;;;;;;;5012994;28;20804;-47
2023/07/12 03:12:01;;;;;;;8.17;5.60;;;24.00;70.20;;;;;;5013095;28;20487;-48
2023/07/12 03:14:29;;;;;;;8.40;5.80;;;;;;;;;;5013134;28;20438;-48
2023/07/12 03:16:56;;;;;;;7.40;6.10;;;24.00;70.50;;;;;;5013543;28;20447;-47
2023/07/12 03:19:23;;;;;;;7.20;5.50;;;;;;;;;;5012846;28;20436;-47
2023/07/12 03:21:51;;;;;;;6.03;5.40;;;;;;;;;;5013009;28;20999;-47
2023/07/12 03:24:18;;;;;;;9.50;5.83;;;;;;;;;;5013050;28;20443;-47
2023/07/12 03:26:45;;;;;;;9.70;6.20;;;;;;;;;;5012972;28;20439;-46
2023/07/12 03:29:12;;;;;;;7.83;5.63;;;24.00;71.30;;;;;;5012747;28;20432;-47
2023/07/12 03:31:38;;;;;;;6.60;5.90;;;24.00;71.60;;;;;;5013027;28;20482;-47
2023/07/12 03:34:05;;;;;;;7.13;5.70;;;;;;;;;;5012912;28;20446;-48
2023/07/12 03:36:32;;;;;;;8.47;6.43;;;24.00;72.00;;;;;;5012769;28;20454;-47
2023/07/12 03:39:01;;;;;;;9.00;6.23;;;;;;;;;;5012672;28;20447;-48
2023/07/12 03:41:28;;;;;;;7.83;6.07;;;;;;;;;;5012688;28;20519;-46
2023/07/12 03:43:55;;;;;;;7.80;6.30;;;24.00;72.40;;;;;;5011475;28;20474;-46
2023/07/12 03:46:22;;;;;;;6.90;6.20;;;;;;;;;;5016641;28;20471;-47
2023/07/12 03:48:48;;;;;;;9.47;6.93;;;24.10;72.90;;;;;;5012012;28;20557;-47
2023/07/12 03:51:17;;;;;;;7.30;6.47;;;;;;;;;;5012612;28;20946;-48
2023/07/12 03:53:44;;;;;;;7.10;6.40;;;24.10;73.20;;;;;;5012535;28;20483;-48
2023/07/12 03:56:13;;;;;;;8.83;6.30;;;24.10;73.20;;;;;;5012520;28;20928;-47
2023/07/12 03:58:40;;;;;;;8.20;6.90;;;24.20;73.50;;;;;;5012371;28;20444;-46
2023/07/12 04:01:09;;;;;;;10.70;8.30;;;24.10;73.60;;;;;;5012705;28;20465;-48
2023/07/12 04:03:36;;;;;;;8.00;7.20;;;;;;;;;;5012335;28;20441;-46
2023/07/12 04:06:04;;;;;;;8.10;7.30;;;;;;;;;;5012500;28;20439;-48
2023/07/12 04:08:31;;;;;;;7.90;6.97;;;;;;;;;;5012197;28;20437;-48
2023/07/12 04:10:58;;;;;;;14.23;7.07;;;;;;;;;;5012549;28;20653;-51
2023/07/12 04:13:27;;;;;;;7.93;7.13;;;24.30;73.80;;;;;;5012320;28;20486;-47
2023/07/12 04:15:55;;;;;;;11.57;8.17;;;;;;;;;;5012348;28;20440;-47
2023/07/12 04:18:22;;;;;;;8.87;6.73;;;;;;;;;;5012068;28;20444;-46
2023/07/12 04:20:49;;;;;;;9.10;8.17;;;24.50;73.90;;;;;;5012046;28;20459;-47
2023/07/12 04:23:16;;;;;;;9.40;7.67;;;;;;;;;;5012258;28;20433;-47
2023/07/12 04:25:43;;;;;;;10.23;7.37;;;;;;;;;;5012144;28;20432;-47
2023/07/12 04:28:10;;;;;;;9.43;8.10;;;;;;;;;;5011819;28;20452;-47
2023/07/12 04:30:38;;;;;;;14.10;8.13;;;;;;;;;;5010720;28;20475;-47
2023/07/12 04:33:05;;;;;;;9.30;8.30;;;24.60;74.00;;;;;;5011957;28;20863;-47
2023/07/12 04:35:32;;;;;;;9.83;8.83;;;;;;;;;;5011965;28;20921;-47
2023/07/12 04:37:59;;;;;;;15.87;7.90;;;;;;;;;;5012011;28;20448;-47
2023/07/12 04:40:26;;;;;;;9.07;7.60;;;;;;;;;;5011940;28;20474;-47
2023/07/12 04:42:53;;;;;;;11.40;7.70;;;24.80;74.00;;;;;;5012026;28;20444;-46
2023/07/12 04:45:19;;;;;;;12.47;7.40;;;24.80;74.10;;;;;;5011927;28;20437;-47
2023/07/12 04:47:48;;;;;;;10.00;8.20;;;;;;;;;;5012295;28;20440;-47
2023/07/12 04:50:15;;;;;;;10.60;8.20;;;;;;;;;;5011790;28;21015;-47
2023/07/12 04:52:41;;;;;;;9.93;8.93;;;25.00;74.30;;;;;;5011908;28;20495;-47
2023/07/12 04:55:21;;;;;;;10.47;9.40;;;25.00;74.30;;;;;;5012083;28;20433;-47
2023/07/12 04:57:48;;;;;;;9.70;8.27;;;25.00;74.40;;;;;;5012395;28;20436;-47
2023/07/12 05:00:15;;;;;;;10.40;8.73;;;;;;;;;;5015092;28;20444;-47
2023/07/12 05:02:42;;;;;;;13.43;9.93;;;;;;;;;;5017345;28;20443;-47
2023/07/12 05:05:11;;;;;;;10.30;9.20;;;;;;;;;;5015959;28;20440;-47
2023/07/12 05:07:38;;;;;;;10.80;9.23;;;25.10;75.00;;;;;;5015713;28;20483;-48
2023/07/12 05:10:06;;;;;;;12.07;8.60;;;;;;;;;;5015101;28;20444;-47
2023/07/12 05:12:33;;;;;;;14.37;9.50;;;;;;;;;;5016215;28;20969;-47
2023/07/12 05:15:00;;;;;;;14.30;8.70;;;;;;;;;;5015713;28;20428;-47
2023/07/12 05:17:28;;;;;;;13.33;9.00;;;;;;;;;;5015271;28;20443;-48
2023/07/12 05:19:55;;;;;;;19.03;9.20;;;;;;;;;;5014805;28;20488;-47
2023/07/12 05:22:23;;;;;;;10.23;8.30;;;;;;;;;;5015132;28;20432;-47
2023/07/12 05:24:50;;;;;;;10.70;9.33;;;25.40;75.70;;;;;;5015169;28;20428;-48
2023/07/12 05:27:17;;;;;;;15.47;9.77;;;25.50;75.70;;;;;;5014818;28;20436;-48
2023/07/12 05:29:43;;;;;;;11.90;9.53;;;;;;;;;;5014474;28;20500;-48
2023/07/12 05:32:10;;;;;;;13.10;9.80;;;25.50;75.80;;;;;;5014763;28;20468;-47
2023/07/12 05:34:37;;;;;;;13.77;11.27;;;;;;;;;;5014905;28;20437;-49
2023/07/12 05:37:05;;;;;;;10.77;9.53;;;;;;;;;;5014856;28;20443;-49
2023/07/12 05:39:33;;;;;;;13.10;10.33;;;25.60;76.20;;;;;;5014392;28;20452;-48
2023/07/12 05:42:00;;;;;;;10.53;9.50;;;;;;;;;;5014958;28;20448;-48
2023/07/12 05:44:27;;;;;;;12.70;9.97;;;;;;;;;;5015114;28;20427;-47
2023/07/12 05:46:54;;;;;;;13.13;10.37;;;;;;;;;;5014505;28;20493;-47
2023/07/12 05:49:20;;;;;;;14.53;10.83;;;25.80;76.60;;;;;;5014770;28;20551;-48
2023/07/12 05:51:48;;;;;;;16.23;10.60;;;;;;;;;;5014384;28;20460;-49
2023/07/12 05:54:15;;;;;;;11.20;10.00;;;;;;;;;;5014181;28;21007;-48
2023/07/12 05:56:44;;;;;;;13.07;10.40;;;;;;;;;;5013252;28;20472;-48
2023/07/12 05:59:11;;;;;;;13.13;10.13;;;;;;;;;;5014107;28;20479;-47
2023/07/12 06:01:38;;;;;;;14.27;10.50;;;;;;;;;;5014394;28;20448;-48
2023/07/12 06:04:08;;;;;;;12.53;10.40;;;;;;;;;;5014879;28;20443;-47
2023/07/12 06:06:35;;;;;;;14.50;11.17;;;;;;;;;;5014562;28;20432;-48
2023/07/12 06:09:02;;;;;;;12.87;8.20;;;26.00;77.40;;;;;;5014231;28;20510;-48
2023/07/12 06:11:29;;;;;;;12.60;9.87;;;;;;;;;;5014656;28;20452;-46
2023/07/12 06:13:57;;;;;;;16.27;9.93;;;;;;;;;;5015058;28;20479;-46
2023/07/12 06:16:24;;;;;;;16.53;9.43;;;;;;;;;;5015484;28;20432;-47
2023/07/12 06:18:51;;;;;;;19.63;11.20;;;26.10;77.80;;;;;;5013727;28;20432;-47
2023/07/12 06:21:37;;;;;;;12.60;9.80;;;;;;;;;;5013650;28;20486;-48
2023/07/12 06:24:04;;;;;;;12.57;10.70;;;26.00;78.20;;;;;;5014233;28;20432;-47
2023/07/12 06:26:32;;;;;;;15.20;9.80;;;;;;;;;;5014365;28;20957;-48
2023/07/12 06:29:00;;;;;;;12.80;9.93;;;26.00;78.60;;;;;;5013381;28;20490;-47
2023/07/12 06:31:27;;;;;;;14.27;10.10;;;;;;;;;;5013990;28;20740;-46
2023/07/12 06:33:54;;;;;;;10.53;8.63;;;26.10;79.30;;;;;;5013482;28;20573;-47
2023/07/12 06:36:21;;;;;;;11.53;9.40;;;;;;;;;;5012348;28;20452;-49
2023/07/12 06:38:48;;;;;;;11.63;9.33;;;;;;;;;;5012791;28;20520;-48
2023/07/12 06:41:14;;;;;;;12.20;9.63;;;26.40;79.60;;;;;;5013479;28;20490;-48
2023/07/12 06:43:41;;;;;;;13.07;9.50;;;;;;;;;;5013438;28;20434;-47
2023/07/12 06:46:09;;;;;;;10.93;9.40;;;26.80;79.40;;;;;;5011931;28;20452;-47
2023/07/12 06:48:36;;;;;;;13.63;9.43;;;27.00;79.40;;;;;;5013083;28;20462;-46
2023/07/12 06:51:04;;;;;;;15.33;10.20;;;;;;;;;;5012725;28;20452;-46
2023/07/12 06:53:31;;;;;;;14.90;9.90;;;;;;;;;;5013014;28;20472;-46
2023/07/12 06:55:58;;;;;;;11.90;9.73;;;;;;;;;;5013462;28;20440;-48
2023/07/12 06:58:25;;;;;;;9.00;8.10;;;27.90;78.90;;;;;;5012656;28;20550;-46
2023/07/12 07:00:52;;;;;;;11.03;9.30;;;;;;;;;;5012714;28;20467;-48
2023/07/12 07:03:20;;;;;;;10.33;8.33;;;28.10;78.60;;;;;;5011874;28;20487;-46
2023/07/12 07:05:48;;;;;;;9.17;7.67;;;;;;;;;;5013432;28;20432;-45
2023/07/12 07:08:16;;;;;;;10.43;7.40;;;;;;;;;;5012935;28;20435;-44
2023/07/12 07:10:43;;;;;;;8.93;7.50;;;;;;;;;;5012944;28;20821;-45
2023/07/12 07:13:10;;;;;;;13.80;7.37;;;28.80;78.00;;;;;;5013036;28;20479;-45
2023/07/12 07:15:37;;;;;;;18.43;8.27;;;;;;;;;;5013211;28;20519;-46
2023/07/12 07:18:04;;;;;;;16.77;8.03;;;;;;;;;;5013225;28;20436;-49
2023/07/12 07:20:32;;;;;;;8.87;7.13;;;;;;;;;;5012477;28;20471;-46
2023/07/12 07:22:59;;;;;;;7.50;6.70;;;;;;;;;;5011792;28;20447;-46
2023/07/12 07:25:28;;;;;;;9.10;7.63;;;;;;;;;;5012614;28;20538;-45
2023/07/12 07:27:55;;;;;;;11.27;7.90;;;;;;;;;;5014399;28;20460;-46
2023/07/12 07:30:21;;;;;;;13.60;7.77;;;29.00;76.10;;;;;;5013099;28;20471;-45
2023/07/12 07:32:49;;;;;;;43.37;9.60;;;;;;;;;;5012828;28;20455;-45
2023/07/12 07:35:16;;;;;;;17.53;7.90;;;;;;;;;;5012915;28;20446;-45
2023/07/12 07:37:47;;;;;;;13.70;7.90;;;28.60;76.30;;;;;;5013166;28;20435;-45
2023/07/12 07:40:15;;;;;;;8.40;7.60;;;28.60;76.30;;;;;;5012642;28;20468;-45
2023/07/12 07:42:42;;;;;;;16.47;8.40;;;;;;;;;;5012541;28;20532;-45
2023/07/12 07:45:10;;;;;;;8.67;7.80;;;;;;;;;;5012480;28;20424;-45
2023/07/12 07:47:37;;;;;;;10.73;7.57;;;;;;;;;;5012613;28;20445;-44
2023/07/12 07:50:06;;;;;;;9.80;8.07;;;28.40;75.70;;;;;;5011906;28;20439;-46
2023/07/12 07:52:33;;;;;;;9.27;8.20;;;;;;;;;;5012271;28;20522;-46
2023/07/12 07:55:01;;;;;;;10.37;9.03;;;;;;;;;;5011885;28;20499;-45
2023/07/12 07:57:29;;;;;;;9.20;8.00;;;;;;;;;;5012288;28;20444;-45
2023/07/12 07:59:56;;;;;;;10.17;8.07;;;28.30;74.60;;;;;;5012074;28;20446;-45
2023/07/12 08:02:23;;;;;;;14.43;8.43;;;;;;;;;;5012573;28;20435;-45
2023/07/12 08:04:50;;;;;;;12.73;8.87;;;;;;;;;;5012569;28;20466;-45
2023/07/12 08:07:17;;;;;;;11.03;8.03;;;;;;;;;;5012202;28;20440;-46
2023/07/12 08:09:45;;;;;;;13.10;7.73;;;28.30;73.20;;;;;;5012021;28;20437;-47
2023/07/12 08:12:13;;;;;;;8.77;6.30;;;28.20;72.80;;;;;;5012147;28;20995;-47
2023/07/12 08:14:40;;;;;;;9.50;7.80;;;;;;;;;;5012047;28;20483;-48
2023/07/12 08:17:07;;;;;;;7.50;6.73;;;;;;;;;;5012324;28;20445;-44
2023/07/12 08:19:35;;;;;;;12.57;6.87;;;;;;;;;;5011693;28;20491;-47
2023/07/12 08:22:02;;;;;;;9.20;5.73;;;;;;;;;;5011990;28;20456;-45
2023/07/12 08:24:28;;;;;;;9.00;5.90;;;;;;;;;;5012034;28;20806;-46
2023/07/12 08:26:55;;;;;;;6.97;6.27;;;;;;;;;;5010454;28;20551;-45
2023/07/12 08:29:23;;;;;;;10.33;5.13;;;28.00;72.10;;;;;;5010378;28;20451;-47
2023/07/12 08:31:50;;;;;;;7.37;5.33;;;;;;;;;;5010941;28;20479;-45
2023/07/12 08:34:17;;;;;;;6.80;5.80;;;;;;;;;;5013039;28;20558;-45
2023/07/12 08:36:44;;;;;;;24.13;6.70;;;;;;;;;;5016302;28;20440;-46
2023/07/12 08:39:11;;;;;;;5.33;4.40;;;;;;;;;;5014520;28;20953;-45
2023/07/12 08:41:39;;;;;;;5.67;4.63;;;;;;;;;;5016136;28;20459;-47
2023/07/12 08:44:10;;;;;;;9.63;4.73;;;;;;;;;;5016272;28;20467;-48
2023/07/12 08:46:40;;;;;;;7.30;5.30;;;;;;;;;;5016120;28;20586;-45
2023/07/12 08:49:10;;;;;;;9.43;5.37;;;;;;;;;;5015253;28;20942;-46
2023/07/12 08:51:37;;;;;;;6.33;5.73;;;;;;;;;;5016139;28;20456;-47
2023/07/12 08:54:04;;;;;;;13.23;5.40;;;;;;;;;;5015556;28;20486;-46
2023/07/12 08:56:31;;;;;;;5.30;4.30;;;28.20;72.60;;;;;;5015601;28;20953;-46
2023/07/12 08:58:58;;;;;;;7.37;5.20;;;28.40;72.30;;;;;;5015129;28;20992;-45
2023/07/12 09:01:39;;;;;;;5.43;4.20;;;;;;;;;;5015084;28;20517;-48
2023/07/12 09:04:21;;;;;;;6.60;4.90;;;;;;;;;;5015536;28;20452;-46
2023/07/12 09:06:48;;;;;;;4.97;4.30;;;28.30;72.20;;;;;;5015311;28;20447;-45
2023/07/12 09:09:16;;;;;;;6.70;4.00;;;;;;;;;;5013428;28;20506;-46
2023/07/12 09:11:44;;;;;;;5.87;4.30;;;;;;;;;;5014772;28;20466;-45
2023/07/12 09:14:15;;;;;;;4.87;4.20;;;;;;;;;;5015358;28;20870;-45
2023/07/12 09:16:42;;;;;;;6.37;4.07;;;;;;;;;;5015004;28;20917;-46
2023/07/12 09:19:13;;;;;;;5.53;4.30;;;;;;;;;;5014828;28;20536;-46
2023/07/12 09:21:43;;;;;;;5.00;4.50;;;;;;;;;;5014779;28;20451;-46
2023/07/12 09:24:13;;;;;;;6.37;4.17;;;28.10;73.10;;;;;;5014980;28;20443;-45
2023/07/12 09:26:40;;;;;;;6.40;3.70;;;;;;;;;;5015054;28;20427;-45
2023/07/12 09:29:09;;;;;;;4.70;3.80;;;27.90;74.20;;;;;;5014430;28;20445;-43
2023/07/12 09:31:37;;;;;;;4.57;4.07;;;;;;;;;;5014756;28;20481;-45
2023/07/12 09:34:05;;;;;;;4.37;3.57;;;;;;;;;;5014966;28;20511;-47
2023/07/12 09:36:35;;;;;;;5.37;3.50;;;27.90;74.50;;;;;;5014861;28;20979;-46
2023/07/12 09:39:04;;;;;;;3.47;3.10;;;;;;;;;;5014538;28;20441;-48
2023/07/12 09:41:31;;;;;;;4.63;3.00;;;27.80;74.40;;;;;;5014868;28;20458;-45
2023/07/12 09:43:58;;;;;;;5.90;3.13;;;;;;;;;;5014682;28;20862;-47
2023/07/12 09:46:29;;;;;;;5.47;2.40;;;;;;;;;;5014218;28;20432;-46
2023/07/12 09:49:00;;;;;;;5.20;2.87;;;;;;;;;;5014694;28;20432;-46
2023/07/12 09:51:30;;;;;;;4.30;3.53;;;;;;;;;;5015299;28;20448;-46
2023/07/12 09:53:59;;;;;;;5.43;4.00;;;;;;;;;;5014966;28;20483;-44
2023/07/12 09:56:31;;;;;;;5.87;3.70;;;;;;;;;;5014913;28;20436;-47
2023/07/12 09:59:00;;;;;;;5.03;3.60;;;;;;;;;;5014662;28;20437;-46
2023/07/12 10:01:32;;;;;;;6.30;3.37;;;;;;;;;;5014651;28;20462;-47
2023/07/12 10:04:02;;;;;;;4.23;3.03;;;;;;;;;;5012790;28;20471;-46
2023/07/12 10:06:33;;;;;;;5.70;3.00;;;;;;;;;;5014632;28;20439;-43
2023/07/12 10:09:06;;;;;;;3.17;2.87;;;;;;;;;;5012997;28;20448;-45
2023/07/12 10:11:37;;;;;;;4.47;2.60;;;;;;;;;;5014504;28;20823;-45
2023/07/12 10:14:07;;;;;;;3.63;2.50;;;;;;;;;;5014379;28;20474;-45
2023/07/12 10:16:37;;;;;;;5.40;4.00;;;;;;;;;;5014581;28;20447;-44
2023/07/12 10:19:06;;;;;;;9.03;3.10;;;;;;;;;;5014404;28;20585;-45
2023/07/12 10:21:34;;;;;;;5.50;3.60;;;;;;;;;;5015093;28;20452;-46
2023/07/12 10:24:03;;;;;;;2.93;2.63;;;;;;;;;;5015513;28;20437;-46
2023/07/12 10:26:31;;;;;;;3.10;2.77;;;;;;;;;;5014981;28;21033;-47
2023/07/12 10:29:04;;;;;;;3.97;3.03;;;28.70;73.40;;;;;;5013519;28;20483;-45
2023/07/12 10:31:33;;;;;;;4.50;2.70;;;;;;;;;;5014057;28;20475;-48
2023/07/12 10:34:07;;;;;;;3.33;2.10;;;;;;;;;;5013757;28;20975;-47
2023/07/12 10:36:35;;;;;;;16.73;3.30;;;;;;;;;;5014089;28;20972;-46
2023/07/12 10:39:03;;;;;;;6.50;2.47;;;28.80;72.00;;;;;;5013526;28;20949;-45
2023/07/12 10:41:34;;;;;;;8.10;2.33;;;28.90;71.60;;;;;;5013403;28;20825;-45
2023/07/12 10:44:06;;;;;;;8.90;2.57;;;;;;;;;;5013718;28;20447;-44
2023/07/12 10:46:35;;;;;;;9.90;2.40;;;;;;;;;;5013691;28;20448;-45
2023/07/12 10:49:04;;;;;;;3.73;2.13;;;;;;;;;;5012877;28;20452;-46
2023/07/12 10:51:35;;;;;;;5.63;2.03;;;;;;;;;;5012981;28;20448;-45
2023/07/12 10:54:03;;;;;;;3.13;2.73;;;28.80;70.10;;;;;;5013364;28;20932;-45
2023/07/12 10:56:34;;;;;;;4.60;2.63;;;;;;;;;;5013271;28;20432;-46
2023/07/12 10:59:04;;;;;;;13.83;3.13;;;;;;;;;;5012002;28;20447;-46
2023/07/12 11:01:40;;;;;;;8.13;2.47;;;;;;;;;;5013145;28;20830;-46
2023/07/12 11:04:07;;;;;;;6.03;2.70;;;;;;;;;;5013357;28;20433;-46
2023/07/12 11:06:35;;;;;;;7.13;2.37;;;;;;;;;;5011650;28;20889;-46
2023/07/12 11:09:03;;;;;;;4.50;2.70;;;;;;;;;;5013082;28;20445;-46
2023/07/12 11:11:34;;;;;;;3.80;1.87;;;;;;;;;;5014056;28;20460;-45
2023/07/12 11:14:11;;;;;;;4.40;2.23;;;;;;;;;;5013017;28;20580;-45
2023/07/12 11:16:44;;;;;;;6.20;2.50;;;;;;;;;;5012802;28;20451;-46
2023/07/12 11:19:31;;;;;;;3.17;2.07;;;;;;;;;;5012634;28;20448;-45
2023/07/12 11:22:02;;;;;;;3.37;2.17;;;29.50;66.80;;;;;;5012898;28;20475;-45
2023/07/12 11:24:31;;;;;;;5.77;3.33;;;;;;;;;;5013072;28;20467;-46
2023/07/12 11:27:00;;;;;;;8.27;3.17;;;29.60;65.00;;;;;;5012917;28;20439;-46
2023/07/12 11:29:31;;;;;;;2.60;1.90;;;;;;;;;;5012069;28;20797;-44
2023/07/12 11:32:07;;;;;;;2.43;2.00;;;;;;;;;;5012665;28;20491;-45
2023/07/12 11:34:38;;;;;;;7.10;2.90;;;;;;;;;;5012547;28;20476;-45
2023/07/12 11:37:11;;;;;;;3.37;1.97;;;;;;;;;;5012757;28;20428;-46
2023/07/12 11:39:38;;;;;;;8.00;2.27;;;;;;;;;;5012104;28;20436;-45
2023/07/12 11:42:08;;;;;;;4.03;1.90;;;;;;;;;;5012408;28;20461;-46
2023/07/12 11:44:36;;;;;;;8.03;2.50;;;;;;;;;;5012421;28;20433;-46
2023/07/12 11:47:04;;;;;;;4.50;2.67;;;;;;;;;;5012451;28;20428;-45
2023/07/12 11:49:32;;;;;;;3.40;2.83;;;29.80;59.80;;;;;;5012175;28;20451;-47
2023/07/12 11:51:59;;;;;;;2.10;1.50;;;;;;;;;;5011106;28;20491;-46
2023/07/12 11:54:28;;;;;;;5.10;1.70;;;30.00;59.50;;;;;;5012210;28;20472;-45
2023/07/12 11:56:59;;;;;;;3.03;1.80;;;;;;;;;;5011783;28;20441;-47
2023/07/12 11:59:29;;;;;;;5.57;1.80;;;;;;;;;;5012109;28;20448;-45
2023/07/12 12:01:58;;;;;;;3.07;1.90;;;;;;;;;;5012284;28;20449;-45
2023/07/12 12:04:28;;;;;;;4.37;2.20;;;;;;;;;;5011399;28;20475;-44
2023/07/12 12:06:56;;;;;;;2.87;1.80;;;;;;;;;;5012202;28;20456;-46
2023/07/12 12:09:26;;;;;;;3.90;1.93;;;;;;;;;;5011539;28;20444;-45
2023/07/12 12:11:54;;;;;;;2.10;1.53;;;;;;;;;;5011703;28;20483;-47
2023/07/12 12:14:25;;;;;;;2.83;1.33;;;;;;;;;;5012343;28;20498;-46
2023/07/12 12:16:53;;;;;;;3.20;1.90;;;29.60;57.50;;;;;;5012246;28;20798;-45
2023/07/12 12:19:26;;;;;;;4.93;1.93;;;;;;;;;;5011874;28;20459;-46
2023/07/12 12:22:00;;;;;;;2.87;1.80;;;;;;;;;;5012077;28;20470;-45
2023/07/12 12:24:27;;;;;;;6.63;2.27;;;;;;;;;;5012503;28;20955;-47
2023/07/12 12:26:54;;;;;;;4.17;1.97;;;;;;;;;;5012187;28;20444;-46
2023/07/12 12:29:23;;;;;;;5.60;5.00;;;29.80;58.90;;;;;;5011610;28;20928;-46
2023/07/12 12:31:52;;;;;;;10.43;7.17;;;;;;;;;;5012403;28;20468;-47
2023/07/12 12:34:19;;;;;;;4.97;3.17;;;;;;;;;;5011518;28;20432;-48
2023/07/12 12:36:58;;;;;;;4.80;1.90;;;;;;;;;;5011614;28;20437;-47
2023/07/12 12:39:25;;;;;;;4.90;2.70;;;30.00;56.80;;;;;;5011555;28;21020;-47
2023/07/12 12:41:53;;;;;;;8.53;2.63;;;;;;;;;;5011521;28;20452;-49
2023/07/12 12:44:20;;;;;;;5.10;2.10;;;30.10;57.20;;;;;;5011711;28;20806;-47
2023/07/12 12:46:50;;;;;;;4.53;1.53;;;;;;;;;;5011494;28;20429;-47
2023/07/12 12:49:21;;;;;;;2.20;1.70;;;;;;;;;;5011443;28;20853;-48
2023/07/12 12:51:50;;;;;;;8.80;2.03;;;30.10;57.10;;;;;;5011256;28;20461;-48
2023/07/12 12:54:18;;;;;;;3.13;2.00;;;30.20;57.10;;;;;;5011815;28;20933;-48
2023/07/12 12:56:45;;;;;;;7.27;2.37;;;;;;;;;;5011545;28;20484;-46
2023/07/12 12:59:13;;;;;;;2.87;1.70;;;;;;;;;;5011175;28;20424;-49
2023/07/12 13:01:40;;;;;;;3.67;1.53;;;;;;;;;;5011416;28;20502;-47
2023/07/12 13:04:07;;;;;;;3.90;1.70;;;29.80;56.30;;;;;;5011313;28;20945;-47
2023/07/12 13:06:34;;;;;;;5.23;1.87;;;29.80;56.60;;;;;;5011619;28;20433;-48
2023/07/12 13:09:02;;;;;;;5.47;2.80;;;;;;;;;;5011252;28;20451;-48
2023/07/12 13:11:30;;;;;;;14.73;1.97;;;;;;;;;;5009698;28;20555;-48
2023/07/12 13:13:57;;;;;;;2.60;1.60;;;30.00;56.30;;;;;;5011346;28;20444;-48
2023/07/12 13:16:24;;;;;;;5.43;1.70;;;;;;;;;;5010133;28;20480;-48
2023/07/12 13:18:51;;;;;;;4.00;1.70;;;;;;;;;;5011009;28;20432;-48
2023/07/12 13:21:19;;;;;;;3.50;1.60;;;;;;;;;;5012623;28;20460;-48
2023/07/12 13:23:46;;;;;;;4.03;1.63;;;;;;;;;;5015513;28;20432;-47
2023/07/12 13:26:15;;;;;;;3.87;1.83;;;29.80;55.80;;;;;;5015241;28;20437;-48
2023/07/12 13:28:43;;;;;;;3.73;1.40;;;;;;;;;;5014592;28;20471;-49
2023/07/12 13:31:15;;;;;;;3.13;1.97;;;;;;;;;;5014524;28;20482;-47
2023/07/12 13:33:43;;;;;;;2.73;1.70;;;;;;;;;;5015088;28;20498;-48
2023/07/12 13:36:17;;;;;;;4.60;1.60;;;;;;;;;;5014603;28;20480;-46
2023/07/12 13:38:44;;;;;;;5.20;1.63;;;;;;;;;;5015165;28;20440;-47
2023/07/12 13:41:12;;;;;;;3.70;2.00;;;;;;;;;;5014106;28;20456;-48
2023/07/12 13:43:39;;;;;;;4.77;1.80;;;;;;;;;;5013910;28;20456;-48
2023/07/12 13:46:12;;;;;;;5.90;1.90;;;;;;;;;;5014717;28;20432;-48
2023/07/12 13:48:40;;;;;;;4.23;1.60;;;;;;;;;;5014203;28;20703;-48
2023/07/12 13:51:12;;;;;;;6.33;2.33;;;;;;;;;;5014456;28;20451;-48
2023/07/12 13:53:39;;;;;;;3.60;1.50;;;;;;;;;;5014700;28;20533;-48
2023/07/12 13:56:06;;;;;;;3.63;1.30;;;;;;;;;;5014411;28;20864;-48
2023/07/12 13:58:33;;;;;;;6.10;1.47;;;;;;;;;;5014413;28;20431;-47
2023/07/12 14:01:00;;;;;;;5.03;1.50;;;;;;;;;;5014510;28;20472;-47
2023/07/12 14:03:28;;;;;;;1.90;1.07;;;;;;;;;;5014272;28;20507;-48
2023/07/12 14:05:55;;;;;;;8.60;1.50;;;;;;;;;;5014420;28;20432;-49